Time;durP1;ratioP1;P1;durP2;ratioP2;P2;SDS_P1;SDS_P2;PMS_P1;PMS_P2;Temp;Humidity;BMP_temperature;BMP_pressure;BME280_temperature;BME280_humidity;BME280_pressure;Samples;Min_cycle;Max_cycle;Signal;HPM_P1;HPM_P2
2022/01/14 00:01:42;;;;;;;26.17;21.97;;;1.90;97.90;;;;;;5110552;27;20163;-90
2022/01/14 00:04:08;;;;;;;25.20;21.57;;;1.80;98.60;;;;;;5125580;27;20210;-89
2022/01/14 00:06:33;;;;;;;24.17;20.13;;;1.90;98.50;;;;;;5127384;28;20253;-89
2022/01/14 00:09:10;;;;;;;26.23;21.63;;;1.90;98.10;;;;;;5124135;28;20197;-89
2022/01/14 00:11:39;;;;;;;26.53;19.93;;;1.80;98.40;;;;;;5114621;28;20178;-89
2022/01/14 00:16:44;;;;;;;26.40;21.10;;;2.00;97.90;;;;;;5120407;28;20204;-89
2022/01/14 00:19:10;;;;;;;28.90;22.07;;;2.00;98.10;;;;;;5109058;28;20207;-89
2022/01/14 00:21:38;;;;;;;28.63;23.07;;;2.00;98.00;;;;;;5106728;28;20202;-89
2022/01/14 00:24:25;;;;;;;29.80;23.70;;;1.90;98.00;;;;;;5113218;28;20210;-89
2022/01/14 00:32:36;;;;;;;27.47;21.97;;;1.60;98.10;;;;;;5113055;28;20218;-89
2022/01/14 00:35:01;;;;;;;29.10;22.83;;;1.50;98.90;;;;;;5114640;28;20194;-89
2022/01/14 00:37:27;;;;;;;29.97;23.27;;;1.50;99.90;;;;;;5081330;28;20202;-89
2022/01/14 00:39:53;;;;;;;32.57;25.03;;;1.40;99.90;;;;;;5108204;28;20553;-88
2022/01/14 00:42:19;;;;;;;35.97;26.07;;;1.40;99.90;;;;;;5113752;28;20218;-88
2022/01/14 00:44:44;;;;;;;37.03;26.20;;;1.20;99.90;;;;;;5117857;28;20182;-88
2022/01/14 00:47:10;;;;;;;34.57;25.00;;;1.00;99.90;;;;;;5096295;28;20222;-88
2022/01/14 00:49:36;;;;;;;37.73;25.03;;;1.00;99.90;;;;;;5099198;28;20195;-89
2022/01/14 00:52:02;;;;;;;40.17;26.00;;;1.00;99.90;;;;;;5098075;28;20179;-88
2022/01/14 00:54:28;;;;;;;32.20;24.23;;;0.90;99.90;;;;;;5097039;28;20193;-88
2022/01/14 00:57:15;;;;;;;34.30;24.87;;;0.90;99.90;;;;;;5100995;28;20190;-88
2022/01/14 00:59:41;;;;;;;34.77;24.90;;;1.00;99.90;;;;;;5104529;28;20213;-89
2022/01/14 01:02:07;;;;;;;32.87;24.33;;;1.10;99.90;;;;;;5102068;28;20208;-89
2022/01/14 01:04:37;;;;;;;29.57;22.77;;;1.10;99.90;;;;;;5087814;28;20194;-89
2022/01/14 01:07:05;;;;;;;33.83;24.13;;;1.20;99.90;;;;;;5098046;28;20221;-89
2022/01/14 01:09:32;;;;;;;32.73;24.97;;;1.30;99.90;;;;;;5117112;28;20178;-90
2022/01/14 01:14:49;;;;;;;37.63;25.83;;;1.10;99.90;;;;;;5100464;28;20595;-88
2022/01/14 01:17:16;;;;;;;35.40;26.43;;;1.10;99.90;;;;;;5124250;28;20801;-88
2022/01/14 01:19:43;;;;;;;36.83;27.03;;;0.90;99.90;;;;;;5123456;28;20218;-89
2022/01/14 01:22:09;;;;;;;37.43;26.80;;;0.90;99.90;;;;;;5104945;28;20215;-89
2022/01/14 01:24:35;;;;;;;34.33;25.60;;;0.90;99.90;;;;;;5104901;28;20199;-89
2022/01/14 01:27:08;;;;;;;34.30;24.83;;;0.90;99.90;;;;;;5103613;28;20303;-89
2022/01/14 01:32:05;;;;;;;37.43;26.90;;;1.00;99.90;;;;;;5094143;28;20311;-90
2022/01/14 01:34:31;;;;;;;36.40;26.27;;;1.10;99.90;;;;;;5120916;28;20560;-89
2022/01/14 01:36:58;;;;;;;35.60;26.27;;;1.20;99.90;;;;;;5096025;28;20186;-90
2022/01/14 01:39:29;;;;;;;39.70;28.10;;;1.20;99.90;;;;;;5122991;28;20218;-89
2022/01/14 01:42:01;;;;;;;33.27;26.07;;;1.00;99.90;;;;;;5081216;28;20195;-88
2022/01/14 01:44:28;;;;;;;35.07;26.07;;;1.10;99.90;;;;;;5115311;28;20261;-89
2022/01/14 01:46:55;;;;;;;30.93;23.80;;;1.10;99.90;;;;;;5116893;28;20198;-88
2022/01/14 01:49:24;;;;;;;35.20;26.30;;;1.30;99.90;;;;;;5123340;28;20179;-88
2022/01/14 01:51:52;;;;;;;32.77;24.10;;;1.30;99.90;;;;;;5120135;28;20189;-89
2022/01/14 01:54:19;;;;;;;33.53;24.93;;;1.30;99.90;;;;;;5094573;28;20179;-88
2022/01/14 01:56:46;;;;;;;37.23;26.87;;;1.40;99.90;;;;;;5128387;28;20207;-88
2022/01/14 01:59:12;;;;;;;51.50;29.40;;;1.30;99.90;;;;;;5126449;28;20190;-87
2022/01/14 02:01:39;;;;;;;36.07;26.63;;;1.00;99.90;;;;;;5125038;28;20190;-89
2022/01/14 02:04:05;;;;;;;37.20;27.47;;;0.70;99.90;;;;;;5108227;28;20198;-88
2022/01/14 02:06:32;;;;;;;36.03;26.83;;;0.70;99.90;;;;;;5093869;28;20206;-88
2022/01/14 02:08:58;;;;;;;30.97;23.40;;;0.70;99.90;;;;;;5125332;28;20186;-88
2022/01/14 02:11:24;;;;;;;31.33;23.40;;;0.60;99.90;;;;;;5101752;28;20198;-88
2022/01/14 02:13:53;;;;;;;33.83;24.63;;;0.50;99.90;;;;;;5095519;28;20229;-89
2022/01/14 02:16:31;;;;;;;32.40;22.97;;;0.40;99.90;;;;;;5115710;28;20182;-89
2022/01/14 02:19:24;;;;;;;37.50;21.37;;;0.30;99.90;;;;;;5119797;28;20281;-89
2022/01/14 02:22:13;;;;;;;27.10;21.57;;;0.50;99.90;;;;;;5101551;28;20194;-88
2022/01/14 02:27:09;;;;;;;25.83;21.30;;;0.80;99.90;;;;;;5125913;28;20191;-88
2022/01/14 02:29:35;;;;;;;38.17;24.87;;;1.00;99.90;;;;;;5126397;28;20273;-88
2022/01/14 02:32:03;;;;;;;28.27;21.70;;;1.00;99.90;;;;;;5101285;28;20195;-88
2022/01/14 02:34:29;;;;;;;33.37;24.00;;;1.00;99.90;;;;;;5116832;28;20182;-89
2022/01/14 02:36:55;;;;;;;29.17;22.77;;;1.10;99.90;;;;;;5109240;28;20641;-89
2022/01/14 02:39:21;;;;;;;31.43;23.20;;;1.00;99.90;;;;;;5119150;28;20191;-88
2022/01/14 02:41:50;;;;;;;29.57;22.97;;;1.00;99.90;;;;;;5106647;28;20171;-88
2022/01/14 02:44:23;;;;;;;28.03;21.97;;;1.00;99.90;;;;;;5112864;28;20218;-87
2022/01/14 02:46:56;;;;;;;65.30;24.13;;;0.90;99.90;;;;;;5109916;28;20286;-89
2022/01/14 02:49:26;;;;;;;57.30;23.37;;;0.80;99.90;;;;;;5111046;28;20208;-88
2022/01/14 02:51:52;;;;;;;37.07;23.83;;;0.40;99.90;;;;;;5130295;28;20189;-88
2022/01/14 02:54:22;;;;;;;36.50;23.60;;;0.40;99.90;;;;;;5114383;27;20187;-88
2022/01/14 02:56:52;;;;;;;32.73;23.57;;;0.40;99.90;;;;;;5101802;28;20198;-89
2022/01/14 02:59:19;;;;;;;51.30;24.87;;;0.40;99.90;;;;;;5096814;28;20527;-89
2022/01/14 03:01:47;;;;;;;34.30;24.97;;;0.50;99.90;;;;;;5114513;28;20655;-88
2022/01/14 03:04:15;;;;;;;48.50;25.47;;;0.40;99.90;;;;;;5103295;28;20335;-89
2022/01/14 03:06:41;;;;;;;33.07;23.00;;;0.40;99.90;;;;;;5122344;28;20198;-89
2022/01/14 03:09:07;;;;;;;32.93;23.37;;;0.40;99.90;;;;;;5093221;28;20198;-89
2022/01/14 03:11:35;;;;;;;67.83;24.30;;;0.30;99.90;;;;;;5126468;28;20231;-88
2022/01/14 03:14:03;;;;;;;107.90;26.23;;;0.30;99.90;;;;;;5126148;28;20201;-88
2022/01/14 03:16:31;;;;;;;212.00;32.77;;;0.20;99.90;;;;;;5124267;28;20178;-88
2022/01/14 03:19:06;;;;;;;79.67;28.63;;;-0.30;99.90;;;;;;5108351;28;20690;-89
2022/01/14 03:21:37;;;;;;;170.97;32.03;;;-0.50;99.90;;;;;;5089596;28;20687;-89
2022/01/14 03:24:16;;;;;;;44.07;25.67;;;-0.70;99.90;;;;;;5121745;28;20198;-89
2022/01/14 03:26:43;;;;;;;51.33;25.27;;;-0.70;99.90;;;;;;5099453;28;20273;-89
2022/01/14 03:29:09;;;;;;;75.37;25.50;;;-0.50;99.90;;;;;;5125403;28;20182;-89
2022/01/14 03:31:35;;;;;;;173.43;30.50;;;-0.40;99.90;;;;;;5105541;28;20208;-89
2022/01/14 03:34:00;;;;;;;70.87;25.00;;;-0.40;99.90;;;;;;5122700;28;20237;-89
2022/01/14 03:36:26;;;;;;;47.97;25.90;;;-0.60;99.90;;;;;;5122358;28;20191;-88
2022/01/14 03:38:52;;;;;;;33.53;23.30;;;-0.40;99.90;;;;;;5123628;28;20182;-88
2022/01/14 03:41:18;;;;;;;38.23;23.03;;;-0.20;99.90;;;;;;5121305;28;20257;-89
2022/01/14 03:43:44;;;;;;;59.07;23.17;;;-0.10;99.90;;;;;;5123073;28;20240;-89
2022/01/14 03:46:10;;;;;;;28.63;21.03;;;0.00;99.90;;;;;;5121943;28;20201;-88
2022/01/14 03:48:36;;;;;;;32.63;22.40;;;0.00;99.90;;;;;;5106297;28;20175;-89
2022/01/14 03:51:03;;;;;;;49.87;23.83;;;0.20;99.90;;;;;;5120000;28;20183;-89
2022/01/14 03:53:29;;;;;;;27.33;20.00;;;0.20;99.90;;;;;;5125547;28;20213;-89
2022/01/14 03:55:59;;;;;;;26.27;20.23;;;0.20;99.90;;;;;;5126418;28;20190;-89
2022/01/14 03:58:24;;;;;;;24.97;20.27;;;0.30;99.90;;;;;;5103020;28;20186;-87
2022/01/14 04:00:50;;;;;;;25.90;20.47;;;0.30;99.90;;;;;;5126369;28;20189;-89
2022/01/14 04:03:16;;;;;;;24.93;20.17;;;0.40;99.90;;;;;;5124440;28;20210;-90
2022/01/14 04:05:42;;;;;;;25.83;20.60;;;0.60;99.90;;;;;;5089390;28;20433;-89
2022/01/14 04:08:08;;;;;;;26.37;20.10;;;0.70;99.90;;;;;;5093297;28;20207;-89
2022/01/14 04:10:34;;;;;;;26.53;21.40;;;0.70;99.90;;;;;;5109308;28;20186;-88
2022/01/14 04:13:14;;;;;;;23.90;19.50;;;0.80;99.90;;;;;;5109765;28;20210;-89
2022/01/14 04:15:43;;;;;;;26.77;21.00;;;0.90;99.90;;;;;;5119097;28;20169;-89
2022/01/14 04:18:11;;;;;;;29.67;22.43;;;1.00;99.90;;;;;;5121661;28;20349;-89
2022/01/14 04:20:37;;;;;;;29.23;22.87;;;1.00;99.90;;;;;;5121230;28;20819;-89
2022/01/14 04:23:07;;;;;;;26.77;20.77;;;1.00;99.90;;;;;;5095447;28;20303;-89
2022/01/14 04:25:34;;;;;;;26.43;20.83;;;1.10;99.90;;;;;;5103472;28;20656;-89
2022/01/14 04:28:01;;;;;;;30.47;21.33;;;1.10;99.90;;;;;;5112368;28;20295;-88
2022/01/14 04:30:27;;;;;;;25.17;21.30;;;1.00;99.90;;;;;;5097335;28;20592;-89
2022/01/14 04:32:52;;;;;;;27.87;21.10;;;1.00;99.90;;;;;;5090436;28;20229;-89
2022/01/14 04:35:18;;;;;;;27.43;21.57;;;1.10;99.90;;;;;;5107581;28;20211;-89
2022/01/14 04:37:44;;;;;;;26.40;21.67;;;1.20;99.90;;;;;;5103149;28;20249;-88
2022/01/14 04:40:12;;;;;;;34.13;23.13;;;1.20;99.90;;;;;;5095492;28;20197;-89
2022/01/14 04:42:41;;;;;;;29.50;22.33;;;1.10;99.90;;;;;;5090445;28;20219;-89
2022/01/14 04:45:09;;;;;;;33.47;24.03;;;1.10;99.90;;;;;;5104665;28;20218;-89
2022/01/14 04:47:46;;;;;;;30.97;22.23;;;1.10;99.90;;;;;;5097343;28;20217;-89
2022/01/14 04:50:17;;;;;;;35.50;24.70;;;0.90;99.90;;;;;;5097133;28;20197;-89
2022/01/14 04:52:45;;;;;;;31.27;24.33;;;0.60;99.90;;;;;;5113540;28;20218;-88
2022/01/14 04:55:12;;;;;;;46.33;28.30;;;0.50;99.90;;;;;;5115780;28;20178;-89
2022/01/14 04:57:39;;;;;;;41.93;25.70;;;0.60;99.90;;;;;;5118805;28;20664;-88
2022/01/14 05:00:08;;;;;;;47.53;26.03;;;0.40;99.90;;;;;;5091429;28;20195;-89
2022/01/14 05:02:34;;;;;;;65.10;26.73;;;0.20;99.90;;;;;;5109947;28;20206;-88
2022/01/14 05:05:01;;;;;;;83.67;29.40;;;0.00;99.90;;;;;;5101653;28;20190;-89
2022/01/14 05:07:27;;;;;;;39.60;27.97;;;-0.40;99.90;;;;;;5109433;28;20286;-89
2022/01/14 05:10:48;;;;;;;55.73;28.73;;;-0.40;99.90;;;;;;5105465;28;20207;-88
2022/01/14 05:12:44;;;;;;;48.53;26.73;;;-0.30;99.90;;;;;;5098777;28;20215;-89
2022/01/14 05:15:11;;;;;;;60.73;27.33;;;-0.40;99.90;;;;;;5119368;28;20178;-88
2022/01/14 05:17:37;;;;;;;54.67;27.60;;;-0.40;99.90;;;;;;5117118;28;20548;-89
2022/01/14 05:20:05;;;;;;;51.47;28.33;;;-0.40;99.90;;;;;;5100455;28;20266;-88
2022/01/14 05:22:31;;;;;;;87.03;30.87;;;-0.40;99.90;;;;;;5111856;28;20277;-89
2022/01/14 05:24:57;;;;;;;58.97;27.90;;;-0.40;99.90;;;;;;5114709;28;20739;-89
2022/01/14 05:27:23;;;;;;;44.23;28.30;;;-0.30;99.90;;;;;;5121607;28;20207;-89
2022/01/14 05:29:49;;;;;;;46.80;28.27;;;-0.40;99.90;;;;;;5131277;28;20244;-88
2022/01/14 05:32:15;;;;;;;80.83;30.17;;;-0.30;99.90;;;;;;5135939;28;20198;-87
2022/01/14 05:34:44;;;;;;;52.00;28.27;;;-0.30;99.90;;;;;;5124182;28;20179;-86
2022/01/14 05:37:11;;;;;;;67.67;30.03;;;-0.30;99.90;;;;;;5099594;28;20201;-87
2022/01/14 05:39:37;;;;;;;47.50;28.57;;;-0.10;99.90;;;;;;5115200;27;20194;-84
2022/01/14 05:42:04;;;;;;;66.97;28.97;;;-0.30;99.90;;;;;;5126730;28;20250;-88
2022/01/14 05:44:31;;;;;;;46.67;28.77;;;-0.10;99.90;;;;;;5115834;28;20178;-87
2022/01/14 05:46:59;;;;;;;77.10;28.97;;;-0.10;99.90;;;;;;5117221;28;20207;-88
2022/01/14 05:49:25;;;;;;;62.17;28.57;;;-0.10;99.90;;;;;;5120009;28;20229;-87
2022/01/14 05:51:51;;;;;;;110.97;32.43;;;0.00;99.90;;;;;;5093996;28;20198;-87
2022/01/14 05:54:19;;;;;;;79.53;32.17;;;-0.10;99.90;;;;;;5096655;28;20360;-88
2022/01/14 05:56:45;;;;;;;79.03;31.10;;;-0.20;99.90;;;;;;5107696;28;20290;-87
2022/01/14 05:59:11;;;;;;;78.67;33.33;;;-0.20;99.90;;;;;;5114557;28;20244;-87
2022/01/14 06:01:38;;;;;;;111.23;35.53;;;-0.30;99.90;;;;;;5117365;28;20594;-87
2022/01/14 06:04:05;;;;;;;65.50;31.23;;;-0.20;99.90;;;;;;5094144;28;20206;-87
2022/01/14 06:06:31;;;;;;;60.60;30.63;;;-0.20;99.90;;;;;;5111725;28;20273;-88
2022/01/14 06:08:58;;;;;;;147.83;37.17;;;-0.10;99.90;;;;;;5099082;28;20193;-87
2022/01/14 06:11:24;;;;;;;66.37;33.30;;;-0.20;99.90;;;;;;5119131;28;20187;-90
2022/01/14 06:13:49;;;;;;;67.83;32.33;;;-0.20;99.90;;;;;;5117564;28;20726;-90
2022/01/14 06:16:16;;;;;;;62.07;30.93;;;0.00;99.90;;;;;;5123403;28;20236;-89
2022/01/14 06:18:42;;;;;;;65.60;31.07;;;0.00;99.90;;;;;;5118323;28;20233;-89
2022/01/14 06:21:08;;;;;;;67.00;32.60;;;0.00;99.90;;;;;;5123117;28;20216;-89
2022/01/14 06:23:34;;;;;;;69.83;31.37;;;0.00;99.90;;;;;;5117993;28;20207;-89
2022/01/14 06:26:00;;;;;;;92.37;33.47;;;-0.10;99.90;;;;;;5102355;28;20190;-89
2022/01/14 06:28:26;;;;;;;73.17;33.60;;;-0.10;99.90;;;;;;5121157;28;20220;-89
2022/01/14 06:30:52;;;;;;;88.37;34.43;;;0.00;99.90;;;;;;5121200;28;20213;-89
2022/01/14 06:33:18;;;;;;;113.60;36.40;;;0.10;99.90;;;;;;5116907;28;20244;-89
2022/01/14 06:35:44;;;;;;;101.47;34.63;;;0.00;99.90;;;;;;5111886;28;20254;-90
2022/01/14 06:38:10;;;;;;;111.07;34.80;;;0.00;99.90;;;;;;5124785;28;20197;-89
2022/01/14 06:40:37;;;;;;;62.30;32.57;;;-0.10;99.90;;;;;;5107848;28;20199;-89
2022/01/14 06:43:04;;;;;;;48.43;32.03;;;0.20;99.90;;;;;;5120705;28;20314;-89
2022/01/14 06:45:31;;;;;;;64.57;31.17;;;0.20;99.90;;;;;;5120785;28;20243;-89
2022/01/14 06:47:57;;;;;;;63.40;29.57;;;0.20;99.90;;;;;;5122528;28;20209;-88
2022/01/14 06:50:23;;;;;;;66.53;30.20;;;0.40;99.90;;;;;;5115254;28;20643;-89
2022/01/14 06:52:49;;;;;;;93.67;31.73;;;0.20;99.90;;;;;;5116429;28;20279;-89
2022/01/14 06:55:15;;;;;;;69.90;30.27;;;0.10;99.90;;;;;;5089669;28;20182;-89
2022/01/14 06:57:41;;;;;;;59.37;33.27;;;0.10;99.90;;;;;;5101356;28;20752;-89
2022/01/14 07:00:10;;;;;;;101.63;32.67;;;0.00;99.90;;;;;;5102638;28;20198;-89
2022/01/14 07:02:36;;;;;;;59.93;32.07;;;-0.10;99.90;;;;;;5111202;28;20222;-89
2022/01/14 07:05:03;;;;;;;53.20;31.90;;;-0.20;99.90;;;;;;5112339;28;20202;-89
2022/01/14 07:07:29;;;;;;;69.90;32.13;;;-0.20;99.90;;;;;;5114884;28;20714;-89
2022/01/14 07:09:58;;;;;;;89.77;35.00;;;-0.20;99.90;;;;;;5121046;28;20191;-89
2022/01/14 07:12:34;;;;;;;90.87;33.67;;;-0.20;99.90;;;;;;5114117;28;20351;-88
2022/01/14 07:15:01;;;;;;;52.13;32.07;;;-0.20;99.90;;;;;;5113728;28;20289;-89
2022/01/14 07:17:27;;;;;;;66.10;32.63;;;-0.20;99.90;;;;;;5113000;28;20239;-89
2022/01/14 07:19:57;;;;;;;47.37;31.60;;;-0.10;99.90;;;;;;5104778;28;20211;-89
2022/01/14 07:22:23;;;;;;;40.00;27.73;;;0.00;99.90;;;;;;5122636;28;20214;-89
2022/01/14 07:24:49;;;;;;;46.73;30.00;;;0.10;99.90;;;;;;5113961;28;20193;-89
2022/01/14 07:27:16;;;;;;;51.77;28.97;;;0.20;99.90;;;;;;5117846;28;20213;-89
2022/01/14 07:29:42;;;;;;;61.20;29.73;;;0.40;99.90;;;;;;5113502;28;20186;-89
2022/01/14 07:32:08;;;;;;;42.63;29.07;;;0.20;99.90;;;;;;5120716;28;20182;-89
2022/01/14 07:34:34;;;;;;;48.93;30.67;;;0.30;99.90;;;;;;5114880;28;20190;-89
2022/01/14 07:37:00;;;;;;;57.83;28.80;;;0.50;99.90;;;;;;5120595;28;20194;-90
2022/01/14 07:39:26;;;;;;;68.93;30.93;;;0.40;99.90;;;;;;5118333;28;20227;-89
2022/01/14 07:41:52;;;;;;;49.97;31.70;;;0.20;99.90;;;;;;5114603;28;20186;-89
2022/01/14 07:44:19;;;;;;;54.20;29.90;;;0.30;99.90;;;;;;5104896;28;20250;-89
2022/01/14 07:46:47;;;;;;;68.37;33.67;;;0.10;99.90;;;;;;5101673;28;20225;-88
2022/01/14 07:49:14;;;;;;;58.80;32.27;;;0.00;99.90;;;;;;5099162;28;20194;-87
2022/01/14 07:51:40;;;;;;;61.90;32.23;;;0.00;99.90;;;;;;5108681;28;20178;-87
2022/01/14 07:54:07;;;;;;;63.10;34.47;;;-0.10;99.90;;;;;;5101052;28;20680;-87
2022/01/14 07:56:38;;;;;;;54.47;32.47;;;-0.10;99.90;;;;;;5111611;28;20186;-86
2022/01/14 07:59:06;;;;;;;59.07;33.77;;;-0.10;99.90;;;;;;5097075;28;20284;-87
2022/01/14 08:01:33;;;;;;;58.93;35.43;;;-0.20;99.90;;;;;;5116758;28;20289;-87
2022/01/14 08:04:00;;;;;;;69.67;35.57;;;-0.20;99.90;;;;;;5097635;28;20218;-87
2022/01/14 08:06:27;;;;;;;62.20;33.43;;;-0.20;99.90;;;;;;5107162;28;20185;-86
2022/01/14 08:08:53;;;;;;;62.93;34.40;;;-0.20;99.90;;;;;;5121467;28;20518;-87
2022/01/14 08:11:19;;;;;;;59.67;35.47;;;-0.20;99.90;;;;;;5099113;28;20194;-87
2022/01/14 08:13:44;;;;;;;71.50;35.47;;;-0.20;99.90;;;;;;5108204;28;20214;-87
2022/01/14 08:16:10;;;;;;;62.77;34.10;;;-0.20;99.90;;;;;;5114970;28;20189;-87
2022/01/14 08:18:36;;;;;;;56.57;33.07;;;-0.30;99.90;;;;;;5115263;27;20191;-88
2022/01/14 08:21:03;;;;;;;73.87;33.93;;;-0.30;99.90;;;;;;5097379;28;20649;-87
2022/01/14 08:23:29;;;;;;;110.27;38.43;;;-0.30;99.90;;;;;;5095291;28;20228;-87
2022/01/14 08:25:57;;;;;;;73.13;35.13;;;-0.40;99.90;;;;;;5104410;27;20170;-88
2022/01/14 08:28:26;;;;;;;65.47;33.80;;;-0.40;99.90;;;;;;5128454;28;20236;-87
2022/01/14 08:30:53;;;;;;;73.37;36.17;;;-0.40;99.90;;;;;;5117554;28;20194;-87
2022/01/14 08:33:19;;;;;;;96.87;35.70;;;-0.40;99.90;;;;;;5115058;28;20310;-86
2022/01/14 08:35:46;;;;;;;122.47;38.37;;;-0.40;99.90;;;;;;5099406;28;20201;-87
2022/01/14 08:38:12;;;;;;;79.07;36.00;;;-0.40;99.90;;;;;;5112891;28;20308;-86
2022/01/14 08:40:38;;;;;;;100.67;39.40;;;-0.30;99.90;;;;;;5117594;28;20189;-86
2022/01/14 08:43:04;;;;;;;95.77;36.60;;;-0.30;99.90;;;;;;5107846;28;20215;-87
2022/01/14 08:45:29;;;;;;;68.93;33.10;;;-0.20;99.90;;;;;;5101376;28;20239;-87
2022/01/14 08:47:56;;;;;;;91.57;35.47;;;-0.20;99.90;;;;;;5095529;28;20232;-87
2022/01/14 08:50:35;;;;;;;139.73;38.13;;;-0.10;99.90;;;;;;5101006;28;20194;-87
2022/01/14 08:53:05;;;;;;;58.53;29.90;;;-0.10;99.90;;;;;;5118008;28;20216;-87
2022/01/14 08:55:31;;;;;;;106.97;33.00;;;0.10;99.90;;;;;;5119232;28;20273;-86
2022/01/14 08:57:57;;;;;;;115.93;33.03;;;0.10;99.90;;;;;;5112245;28;20243;-86
2022/01/14 09:00:25;;;;;;;67.00;32.00;;;0.10;99.90;;;;;;5123553;28;20190;-86
2022/01/14 09:02:55;;;;;;;70.13;33.27;;;-0.10;99.90;;;;;;5118965;28;20255;-86
2022/01/14 09:05:21;;;;;;;71.70;31.40;;;-0.10;99.90;;;;;;5121043;28;20205;-86
2022/01/14 09:07:48;;;;;;;132.60;33.20;;;-0.20;99.90;;;;;;5106750;28;20209;-87
2022/01/14 09:10:14;;;;;;;135.43;37.07;;;-0.20;99.90;;;;;;5101376;28;20324;-87
2022/01/14 09:12:42;;;;;;;133.27;35.40;;;-0.50;99.90;;;;;;5106358;28;20226;-88
2022/01/14 09:15:09;;;;;;;54.23;33.10;;;-0.50;99.90;;;;;;5108249;28;20723;-87
2022/01/14 09:17:36;;;;;;;60.30;31.87;;;-0.30;99.90;;;;;;5116776;28;20175;-89
2022/01/14 09:20:03;;;;;;;69.70;29.53;;;-0.30;99.90;;;;;;5118326;28;20270;-88
2022/01/14 09:22:31;;;;;;;60.70;29.67;;;0.00;99.90;;;;;;5109626;28;20574;-89
2022/01/14 09:24:59;;;;;;;69.00;30.03;;;0.10;99.90;;;;;;5108570;28;20250;-89
2022/01/14 09:27:29;;;;;;;79.80;32.00;;;0.00;99.90;;;;;;5124199;28;20570;-88
2022/01/14 09:29:56;;;;;;;68.80;31.60;;;0.20;99.90;;;;;;5089699;28;20190;-87
2022/01/14 09:32:22;;;;;;;46.17;30.53;;;0.30;99.90;;;;;;5115236;28;20219;-87
2022/01/14 09:34:48;;;;;;;77.67;31.90;;;0.40;99.90;;;;;;5096481;28;20238;-87
2022/01/14 09:37:14;;;;;;;63.60;31.03;;;0.30;99.90;;;;;;5120110;28;20298;-87
2022/01/14 09:39:43;;;;;;;48.97;29.70;;;0.30;99.90;;;;;;5116206;28;20208;-88
2022/01/14 09:42:10;;;;;;;76.93;31.93;;;0.40;99.90;;;;;;5116601;28;20178;-87
2022/01/14 09:44:36;;;;;;;42.53;28.77;;;0.40;99.90;;;;;;5104484;28;20249;-88
2022/01/14 09:47:03;;;;;;;40.93;28.13;;;0.50;99.90;;;;;;5124537;28;20229;-89
2022/01/14 09:49:29;;;;;;;45.73;27.87;;;0.70;99.90;;;;;;5121095;28;20171;-89
2022/01/14 09:51:55;;;;;;;40.33;26.77;;;0.80;99.90;;;;;;5102878;28;20194;-90
2022/01/14 09:54:21;;;;;;;44.27;28.30;;;1.00;99.90;;;;;;5101561;28;20194;-90
2022/01/14 09:56:47;;;;;;;46.83;29.97;;;1.10;99.90;;;;;;5097397;28;20247;-89
2022/01/14 09:59:13;;;;;;;42.27;27.73;;;1.10;99.90;;;;;;5112454;28;20187;-90
2022/01/14 10:01:43;;;;;;;43.73;28.03;;;1.20;99.90;;;;;;5098274;28;20206;-90
2022/01/14 10:04:18;;;;;;;40.63;27.30;;;1.20;99.90;;;;;;5096339;28;20668;-90
2022/01/14 10:06:56;;;;;;;47.97;28.10;;;1.30;99.90;;;;;;5112629;28;20209;-90
2022/01/14 10:09:32;;;;;;;42.83;27.97;;;1.30;99.90;;;;;;5119363;28;20171;-90
2022/01/14 10:12:15;;;;;;;40.40;27.60;;;1.30;99.90;;;;;;5121720;28;20202;-90
2022/01/14 10:14:51;;;;;;;41.03;27.57;;;1.30;99.90;;;;;;5116994;28;20556;-89
2022/01/14 10:17:17;;;;;;;39.30;27.50;;;1.30;99.90;;;;;;5119918;28;20183;-90
2022/01/14 10:19:44;;;;;;;43.13;28.90;;;1.10;99.90;;;;;;5117345;28;20201;-90
2022/01/14 10:22:29;;;;;;;33.00;24.93;;;1.20;99.90;;;;;;5086441;28;20197;-89
2022/01/14 10:24:59;;;;;;;37.63;26.37;;;1.30;99.90;;;;;;5101537;28;20501;-90
2022/01/14 10:27:46;;;;;;;42.87;26.70;;;1.30;99.90;;;;;;5109077;28;20198;-89
2022/01/14 10:30:23;;;;;;;44.83;27.73;;;1.20;99.90;;;;;;5125768;28;20182;-90
2022/01/14 10:33:01;;;;;;;42.17;28.37;;;0.90;99.90;;;;;;5107266;28;20618;-90
2022/01/14 10:35:29;;;;;;;44.70;29.10;;;0.80;99.90;;;;;;5123823;28;20178;-89
2022/01/14 10:37:59;;;;;;;43.10;29.13;;;0.60;99.90;;;;;;5122423;28;20510;-89
2022/01/14 10:40:28;;;;;;;42.43;29.07;;;0.60;99.90;;;;;;5123022;28;20182;-89
2022/01/14 10:43:01;;;;;;;42.37;29.83;;;0.70;99.90;;;;;;5116452;28;20653;-90
2022/01/14 10:45:28;;;;;;;47.37;30.43;;;0.90;99.90;;;;;;5098093;28;20255;-89
2022/01/14 10:48:05;;;;;;;50.00;30.30;;;0.80;99.90;;;;;;5122733;28;20210;-89
2022/01/14 10:50:45;;;;;;;49.37;32.87;;;0.70;99.90;;;;;;5098236;28;20195;-89
2022/01/14 10:53:21;;;;;;;46.40;30.73;;;0.80;99.90;;;;;;5117619;28;20209;-89
2022/01/14 10:56:03;;;;;;;41.63;29.13;;;1.00;99.90;;;;;;5102892;28;20182;-90
2022/01/14 10:58:34;;;;;;;46.10;31.87;;;1.20;99.90;;;;;;5087813;28;20186;-88
2022/01/14 11:01:11;;;;;;;43.67;31.37;;;1.20;99.90;;;;;;5111124;28;20202;-88
2022/01/14 11:03:46;;;;;;;41.97;29.90;;;1.10;99.90;;;;;;5132604;28;20224;-88
2022/01/14 11:06:23;;;;;;;53.40;34.07;;;0.90;99.90;;;;;;5116923;28;20195;-88
2022/01/14 11:09:17;;;;;;;56.60;34.53;;;0.70;99.90;;;;;;5106456;28;20261;-88
2022/01/14 11:11:44;;;;;;;52.87;33.13;;;0.60;99.90;;;;;;5115015;27;20202;-88
2022/01/14 11:14:11;;;;;;;53.13;32.70;;;0.60;99.90;;;;;;5130361;28;20190;-88
2022/01/14 11:16:37;;;;;;;51.83;35.13;;;0.60;99.90;;;;;;5118686;28;20209;-87
2022/01/14 11:19:07;;;;;;;51.23;34.17;;;0.70;99.90;;;;;;5100213;28;20204;-88
2022/01/14 11:24:33;;;;;;;49.47;32.73;;;0.90;99.90;;;;;;5110887;28;20298;-89
2022/01/14 11:27:09;;;;;;;48.67;30.57;;;1.10;99.90;;;;;;5111529;28;20232;-90
2022/01/14 11:29:39;;;;;;;52.97;35.10;;;1.30;99.90;;;;;;5124308;28;20195;-89
2022/01/14 11:32:07;;;;;;;54.80;35.17;;;1.20;99.90;;;;;;5123233;28;20201;-90
2022/01/14 11:34:35;;;;;;;53.67;33.17;;;1.00;99.90;;;;;;5106537;28;20193;-90
2022/01/14 11:37:06;;;;;;;52.97;36.53;;;1.20;99.90;;;;;;5123028;28;20297;-87
2022/01/14 11:39:36;;;;;;;46.50;31.63;;;1.30;99.90;;;;;;5123547;28;20230;-90
2022/01/14 11:42:08;;;;;;;45.53;31.87;;;1.40;99.90;;;;;;5117386;28;20178;-89
2022/01/14 11:47:46;;;;;;;45.70;30.13;;;1.60;99.90;;;;;;5106487;28;20198;-90
2022/01/14 11:50:19;;;;;;;44.17;27.37;;;1.60;99.90;;;;;;5104116;28;20184;-90
2022/01/14 11:52:46;;;;;;;42.20;28.73;;;1.40;99.90;;;;;;5111603;28;20197;-90
2022/01/14 11:55:21;;;;;;;40.40;26.40;;;1.50;99.90;;;;;;5124052;28;20645;-89
2022/01/14 11:57:55;;;;;;;37.00;27.00;;;1.50;99.90;;;;;;5124671;28;20273;-90
2022/01/14 12:03:06;;;;;;;39.53;27.27;;;1.60;99.90;;;;;;5122455;28;20228;-89
2022/01/14 12:05:37;;;;;;;41.77;27.10;;;1.50;99.90;;;;;;5124483;28;20186;-90
2022/01/14 12:08:08;;;;;;;33.57;26.47;;;1.30;99.90;;;;;;5107169;28;20198;-90
2022/01/14 12:10:43;;;;;;;38.50;28.30;;;1.20;99.90;;;;;;5122450;28;20181;-89
2022/01/14 12:16:10;;;;;;;40.00;26.20;;;1.60;99.90;;;;;;5125816;27;20202;-90
2022/01/14 12:18:57;;;;;;;42.03;26.40;;;1.70;99.90;;;;;;5132728;27;20644;-89
2022/01/14 12:21:56;;;;;;;44.00;28.97;;;1.70;99.90;;;;;;5123531;27;20216;-89
2022/01/14 12:24:22;;;;;;;39.47;26.93;;;1.80;99.90;;;;;;5090650;27;20280;-89
2022/01/14 12:27:12;;;;;;;39.87;27.47;;;1.90;99.90;;;;;;5112398;27;20236;-90
2022/01/14 12:29:39;;;;;;;41.20;30.03;;;2.00;99.90;;;;;;5119695;28;20186;-89
2022/01/14 12:32:10;;;;;;;47.53;31.57;;;1.70;99.90;;;;;;5132213;27;20673;-89
2022/01/14 12:34:55;;;;;;;59.67;32.60;;;1.30;99.90;;;;;;5131993;27;20182;-89
2022/01/14 12:37:37;;;;;;;47.47;31.97;;;1.00;99.90;;;;;;5115776;28;20190;-89
2022/01/14 12:40:09;;;;;;;51.47;33.20;;;1.10;99.90;;;;;;5120735;28;20190;-89
2022/01/14 12:42:35;;;;;;;51.37;33.67;;;1.10;99.90;;;;;;5125152;28;20211;-89
2022/01/14 12:45:03;;;;;;;47.43;30.73;;;0.90;99.90;;;;;;5127391;28;20236;-89
2022/01/14 12:47:36;;;;;;;45.10;30.43;;;1.10;99.90;;;;;;5113923;28;20207;-90
2022/01/14 12:50:05;;;;;;;48.93;33.47;;;1.30;99.90;;;;;;5121590;28;20665;-89
2022/01/14 12:52:38;;;;;;;44.50;29.63;;;1.40;99.90;;;;;;5107699;28;20210;-89
2022/01/14 12:55:09;;;;;;;44.13;30.20;;;1.50;99.90;;;;;;5137178;28;20241;-89
2022/01/14 12:57:35;;;;;;;44.47;29.83;;;1.80;99.90;;;;;;5120523;28;20190;-89
2022/01/14 13:00:03;;;;;;;41.70;29.40;;;1.90;99.90;;;;;;5131050;28;20277;-90
2022/01/14 13:02:29;;;;;;;42.60;30.27;;;1.80;99.90;;;;;;5127211;28;20256;-89
2022/01/14 13:05:20;;;;;;;43.57;29.43;;;1.90;99.90;;;;;;5120172;28;20194;-89
2022/01/14 13:07:47;;;;;;;41.03;28.80;;;2.10;99.90;;;;;;5127651;28;20202;-89
2022/01/14 13:10:14;;;;;;;46.17;29.87;;;2.00;99.90;;;;;;5129580;28;20186;-89